sensor_id;sensor_type;location;lat;lon;timestamp;temperature;humidity
40638;DHT22;26336;44.696;10.622;2022-07-29T00:02:50;26.50;91.70
40638;DHT22;26336;44.696;10.622;2022-07-29T00:05:53;26.50;91.90
40638;DHT22;26336;44.696;10.622;2022-07-29T00:09:03;26.40;92.10
40638;DHT22;26336;44.696;10.622;2022-07-29T00:12:07;26.40;92.10
40638;DHT22;26336;44.696;10.622;2022-07-29T00:15:11;26.40;92.30
40638;DHT22;26336;44.696;10.622;2022-07-29T00:18:15;26.40;92.30
40638;DHT22;26336;44.696;10.622;2022-07-29T00:21:19;26.40;92.50
40638;DHT22;26336;44.696;10.622;2022-07-29T00:24:23;26.40;92.20
40638;DHT22;26336;44.696;10.622;2022-07-29T00:27:27;26.40;91.90
40638;DHT22;26336;44.696;10.622;2022-07-29T00:30:31;26.30;91.90
40638;DHT22;26336;44.696;10.622;2022-07-29T00:33:46;26.30;91.80
40638;DHT22;26336;44.696;10.622;2022-07-29T00:36:50;26.30;92.00
40638;DHT22;26336;44.696;10.622;2022-07-29T00:39:54;26.20;92.20
40638;DHT22;26336;44.696;10.622;2022-07-29T00:42:58;26.10;92.40
40638;DHT22;26336;44.696;10.622;2022-07-29T00:46:01;26.10;92.50
40638;DHT22;26336;44.696;10.622;2022-07-29T00:49:05;26.10;92.40
40638;DHT22;26336;44.696;10.622;2022-07-29T00:52:11;26.10;92.40
40638;DHT22;26336;44.696;10.622;2022-07-29T00:55:19;26.10;92.50
40638;DHT22;26336;44.696;10.622;2022-07-29T00:58:24;26.00;92.70
40638;DHT22;26336;44.696;10.622;2022-07-29T01:01:29;25.80;92.80
40638;DHT22;26336;44.696;10.622;2022-07-29T01:04:34;25.60;93.20
40638;DHT22;26336;44.696;10.622;2022-07-29T01:07:39;25.60;93.00
40638;DHT22;26336;44.696;10.622;2022-07-29T01:10:49;25.70;93.00
40638;DHT22;26336;44.696;10.622;2022-07-29T01:13:54;25.50;93.00
40638;DHT22;26336;44.696;10.622;2022-07-29T01:17:02;25.50;93.20
40638;DHT22;26336;44.696;10.622;2022-07-29T01:30:56;25.70;93.40
40638;DHT22;26336;44.696;10.622;2022-07-29T01:34:05;25.70;93.40
40638;DHT22;26336;44.696;10.622;2022-07-29T01:37:19;25.70;93.40
40638;DHT22;26336;44.696;10.622;2022-07-29T01:40:38;25.70;92.90
40638;DHT22;26336;44.696;10.622;2022-07-29T01:43:53;25.70;92.70
40638;DHT22;26336;44.696;10.622;2022-07-29T01:46:59;25.70;92.60
40638;DHT22;26336;44.696;10.622;2022-07-29T01:50:08;25.80;93.10
40638;DHT22;26336;44.696;10.622;2022-07-29T01:53:20;25.80;93.20
40638;DHT22;26336;44.696;10.622;2022-07-29T01:56:25;25.70;93.30
40638;DHT22;26336;44.696;10.622;2022-07-29T01:59:34;25.70;93.30
40638;DHT22;26336;44.696;10.622;2022-07-29T02:02:42;25.70;93.40
40638;DHT22;26336;44.696;10.622;2022-07-29T02:05:48;25.70;93.40
40638;DHT22;26336;44.696;10.622;2022-07-29T02:08:54;25.60;93.50
40638;DHT22;26336;44.696;10.622;2022-07-29T02:12:00;25.70;93.40
40638;DHT22;26336;44.696;10.622;2022-07-29T02:15:06;25.70;93.40
40638;DHT22;26336;44.696;10.622;2022-07-29T02:18:18;25.60;93.40
40638;DHT22;26336;44.696;10.622;2022-07-29T02:21:25;25.60;93.30
40638;DHT22;26336;44.696;10.622;2022-07-29T02:24:30;25.60;93.20
40638;DHT22;26336;44.696;10.622;2022-07-29T02:27:35;25.60;93.10
40638;DHT22;26336;44.696;10.622;2022-07-29T02:30:42;25.50;93.00
40638;DHT22;26336;44.696;10.622;2022-07-29T02:33:47;25.20;93.30
40638;DHT22;26336;44.696;10.622;2022-07-29T02:36:54;25.20;93.40
40638;DHT22;26336;44.696;10.622;2022-07-29T02:40:00;25.20;93.50
40638;DHT22;26336;44.696;10.622;2022-07-29T02:43:06;25.10;93.40
40638;DHT22;26336;44.696;10.622;2022-07-29T02:46:14;25.00;93.60
40638;DHT22;26336;44.696;10.622;2022-07-29T02:49:46;25.00;93.70
40638;DHT22;26336;44.696;10.622;2022-07-29T02:53:00;25.00;93.70
40638;DHT22;26336;44.696;10.622;2022-07-29T02:56:12;25.10;93.70
40638;DHT22;26336;44.696;10.622;2022-07-29T02:59:18;25.10;93.60
40638;DHT22;26336;44.696;10.622;2022-07-29T03:02:25;25.20;93.60
40638;DHT22;26336;44.696;10.622;2022-07-29T03:05:31;25.20;93.60
40638;DHT22;26336;44.696;10.622;2022-07-29T03:08:35;25.20;93.60
40638;DHT22;26336;44.696;10.622;2022-07-29T03:11:40;25.20;93.70
40638;DHT22;26336;44.696;10.622;2022-07-29T03:14:49;25.20;93.70
40638;DHT22;26336;44.696;10.622;2022-07-29T03:17:53;25.20;93.80
40638;DHT22;26336;44.696;10.622;2022-07-29T03:20:57;25.20;93.90
40638;DHT22;26336;44.696;10.622;2022-07-29T03:24:01;25.20;94.00
40638;DHT22;26336;44.696;10.622;2022-07-29T03:27:05;25.20;94.00
40638;DHT22;26336;44.696;10.622;2022-07-29T03:30:11;25.20;94.00
40638;DHT22;26336;44.696;10.622;2022-07-29T03:33:16;25.20;94.30
40638;DHT22;26336;44.696;10.622;2022-07-29T03:36:20;25.10;94.50
40638;DHT22;26336;44.696;10.622;2022-07-29T03:39:27;25.10;94.90
40638;DHT22;26336;44.696;10.622;2022-07-29T03:42:32;25.10;95.00
40638;DHT22;26336;44.696;10.622;2022-07-29T03:45:37;25.10;95.20
40638;DHT22;26336;44.696;10.622;2022-07-29T03:48:44;25.10;95.20
40638;DHT22;26336;44.696;10.622;2022-07-29T03:51:49;25.00;95.30
40638;DHT22;26336;44.696;10.622;2022-07-29T03:54:53;25.00;95.40
40638;DHT22;26336;44.696;10.622;2022-07-29T03:57:58;25.00;95.60
40638;DHT22;26336;44.696;10.622;2022-07-29T04:01:03;25.00;95.50
40638;DHT22;26336;44.696;10.622;2022-07-29T04:04:10;24.90;95.50
40638;DHT22;26336;44.696;10.622;2022-07-29T04:07:17;24.90;95.40
40638;DHT22;26336;44.696;10.622;2022-07-29T04:10:24;24.90;95.70
40638;DHT22;26336;44.696;10.622;2022-07-29T04:13:28;24.90;95.30
40638;DHT22;26336;44.696;10.622;2022-07-29T04:16:33;24.90;95.30
40638;DHT22;26336;44.696;10.622;2022-07-29T04:19:37;24.90;95.30
40638;DHT22;26336;44.696;10.622;2022-07-29T04:22:42;24.90;95.30
40638;DHT22;26336;44.696;10.622;2022-07-29T04:25:47;24.90;95.10
40638;DHT22;26336;44.696;10.622;2022-07-29T04:28:51;24.90;95.30
40638;DHT22;26336;44.696;10.622;2022-07-29T04:31:55;24.90;95.40
40638;DHT22;26336;44.696;10.622;2022-07-29T04:34:59;24.90;95.50
40638;DHT22;26336;44.696;10.622;2022-07-29T04:38:04;24.80;95.50
40638;DHT22;26336;44.696;10.622;2022-07-29T04:41:08;24.80;95.50
40638;DHT22;26336;44.696;10.622;2022-07-29T04:44:12;24.80;95.30
40638;DHT22;26336;44.696;10.622;2022-07-29T04:47:16;24.80;95.40
40638;DHT22;26336;44.696;10.622;2022-07-29T04:50:22;24.80;95.40
40638;DHT22;26336;44.696;10.622;2022-07-29T04:53:29;24.80;95.50
40638;DHT22;26336;44.696;10.622;2022-07-29T04:56:33;24.80;95.70
40638;DHT22;26336;44.696;10.622;2022-07-29T04:59:37;24.80;95.80
40638;DHT22;26336;44.696;10.622;2022-07-29T05:02:41;24.70;95.90
40638;DHT22;26336;44.696;10.622;2022-07-29T05:05:45;24.70;96.10
40638;DHT22;26336;44.696;10.622;2022-07-29T05:08:49;24.70;96.30
40638;DHT22;26336;44.696;10.622;2022-07-29T05:11:53;24.70;96.30
40638;DHT22;26336;44.696;10.622;2022-07-29T05:14:56;24.70;96.30
40638;DHT22;26336;44.696;10.622;2022-07-29T05:18:01;24.70;96.40
40638;DHT22;26336;44.696;10.622;2022-07-29T05:21:05;24.70;96.40
40638;DHT22;26336;44.696;10.622;2022-07-29T05:24:09;24.60;96.20
40638;DHT22;26336;44.696;10.622;2022-07-29T05:27:13;24.60;96.60
40638;DHT22;26336;44.696;10.622;2022-07-29T05:30:17;24.60;96.30
40638;DHT22;26336;44.696;10.622;2022-07-29T05:33:21;24.60;96.20
40638;DHT22;26336;44.696;10.622;2022-07-29T05:36:28;24.60;96.20
40638;DHT22;26336;44.696;10.622;2022-07-29T05:39:32;24.60;96.20
40638;DHT22;26336;44.696;10.622;2022-07-29T05:42:36;24.60;96.20
40638;DHT22;26336;44.696;10.622;2022-07-29T05:45:40;24.60;96.40
40638;DHT22;26336;44.696;10.622;2022-07-29T05:48:44;24.60;96.50
40638;DHT22;26336;44.696;10.622;2022-07-29T05:51:47;24.70;96.50
40638;DHT22;26336;44.696;10.622;2022-07-29T05:54:52;24.70;96.30
40638;DHT22;26336;44.696;10.622;2022-07-29T05:57:56;24.70;96.30
40638;DHT22;26336;44.696;10.622;2022-07-29T06:01:00;24.70;96.40
40638;DHT22;26336;44.696;10.622;2022-07-29T06:04:05;24.70;96.40
40638;DHT22;26336;44.696;10.622;2022-07-29T06:07:09;24.80;96.70
40638;DHT22;26336;44.696;10.622;2022-07-29T06:10:13;24.80;96.60
40638;DHT22;26336;44.696;10.622;2022-07-29T06:13:17;24.80;96.10
40638;DHT22;26336;44.696;10.622;2022-07-29T06:16:21;24.80;95.60
40638;DHT22;26336;44.696;10.622;2022-07-29T06:19:25;24.80;95.80
40638;DHT22;26336;44.696;10.622;2022-07-29T06:22:29;24.90;95.90
40638;DHT22;26336;44.696;10.622;2022-07-29T06:25:33;24.90;95.90
40638;DHT22;26336;44.696;10.622;2022-07-29T06:28:39;24.90;95.90
40638;DHT22;26336;44.696;10.622;2022-07-29T06:31:45;25.00;96.00
40638;DHT22;26336;44.696;10.622;2022-07-29T06:34:50;25.00;96.10
40638;DHT22;26336;44.696;10.622;2022-07-29T06:37:54;25.10;96.00
40638;DHT22;26336;44.696;10.622;2022-07-29T06:40:59;25.10;96.10
40638;DHT22;26336;44.696;10.622;2022-07-29T06:44:03;25.10;96.60
40638;DHT22;26336;44.696;10.622;2022-07-29T06:47:08;25.20;96.60
40638;DHT22;26336;44.696;10.622;2022-07-29T06:50:12;25.20;96.70
40638;DHT22;26336;44.696;10.622;2022-07-29T06:53:18;25.20;96.90
40638;DHT22;26336;44.696;10.622;2022-07-29T06:56:21;25.20;96.90
40638;DHT22;26336;44.696;10.622;2022-07-29T06:59:25;25.20;96.80
40638;DHT22;26336;44.696;10.622;2022-07-29T07:02:29;25.20;96.80
40638;DHT22;26336;44.696;10.622;2022-07-29T07:05:33;25.30;96.40
40638;DHT22;26336;44.696;10.622;2022-07-29T07:08:37;25.30;96.20
40638;DHT22;26336;44.696;10.622;2022-07-29T07:11:41;25.30;95.80
40638;DHT22;26336;44.696;10.622;2022-07-29T07:14:45;25.40;95.70
40638;DHT22;26336;44.696;10.622;2022-07-29T07:17:50;25.40;95.80
40638;DHT22;26336;44.696;10.622;2022-07-29T07:20:56;25.40;95.90
40638;DHT22;26336;44.696;10.622;2022-07-29T07:24:01;25.40;95.50
40638;DHT22;26336;44.696;10.622;2022-07-29T07:27:05;25.40;95.30
40638;DHT22;26336;44.696;10.622;2022-07-29T07:30:09;25.50;95.40
40638;DHT22;26336;44.696;10.622;2022-07-29T07:33:13;25.50;95.50
40638;DHT22;26336;44.696;10.622;2022-07-29T07:36:17;25.50;95.30
40638;DHT22;26336;44.696;10.622;2022-07-29T07:39:21;25.60;95.40
40638;DHT22;26336;44.696;10.622;2022-07-29T07:42:25;25.60;95.50
40638;DHT22;26336;44.696;10.622;2022-07-29T07:45:30;25.70;95.50
40638;DHT22;26336;44.696;10.622;2022-07-29T07:48:36;25.70;95.00
40638;DHT22;26336;44.696;10.622;2022-07-29T07:51:40;25.70;94.90
40638;DHT22;26336;44.696;10.622;2022-07-29T07:54:44;25.80;95.10
40638;DHT22;26336;44.696;10.622;2022-07-29T07:57:48;25.80;95.10
40638;DHT22;26336;44.696;10.622;2022-07-29T08:00:53;25.80;94.60
40638;DHT22;26336;44.696;10.622;2022-07-29T08:03:57;25.90;94.60
40638;DHT22;26336;44.696;10.622;2022-07-29T08:07:04;25.90;94.30
40638;DHT22;26336;44.696;10.622;2022-07-29T08:10:08;25.90;94.30
40638;DHT22;26336;44.696;10.622;2022-07-29T08:13:14;26.00;94.30
40638;DHT22;26336;44.696;10.622;2022-07-29T08:16:19;26.00;93.80
40638;DHT22;26336;44.696;10.622;2022-07-29T08:19:23;26.10;93.50
40638;DHT22;26336;44.696;10.622;2022-07-29T08:22:26;26.10;93.40
40638;DHT22;26336;44.696;10.622;2022-07-29T08:25:30;26.20;93.30
40638;DHT22;26336;44.696;10.622;2022-07-29T08:28:34;26.20;92.90
40638;DHT22;26336;44.696;10.622;2022-07-29T08:31:39;26.20;93.10
40638;DHT22;26336;44.696;10.622;2022-07-29T08:34:43;26.30;93.00
40638;DHT22;26336;44.696;10.622;2022-07-29T08:37:49;26.30;92.60
40638;DHT22;26336;44.696;10.622;2022-07-29T08:40:54;26.40;92.70
40638;DHT22;26336;44.696;10.622;2022-07-29T08:43:58;26.40;92.70
40638;DHT22;26336;44.696;10.622;2022-07-29T08:47:02;26.40;92.50
40638;DHT22;26336;44.696;10.622;2022-07-29T08:50:08;26.50;92.40
40638;DHT22;26336;44.696;10.622;2022-07-29T08:53:17;26.50;92.40
40638;DHT22;26336;44.696;10.622;2022-07-29T08:56:22;26.60;92.10
40638;DHT22;26336;44.696;10.622;2022-07-29T08:59:27;26.60;92.00
40638;DHT22;26336;44.696;10.622;2022-07-29T09:02:39;26.70;92.00
40638;DHT22;26336;44.696;10.622;2022-07-29T09:05:45;26.80;91.90
40638;DHT22;26336;44.696;10.622;2022-07-29T09:08:49;26.90;91.70
40638;DHT22;26336;44.696;10.622;2022-07-29T09:11:54;26.90;91.70
40638;DHT22;26336;44.696;10.622;2022-07-29T09:14:58;27.00;91.60
40638;DHT22;26336;44.696;10.622;2022-07-29T09:18:02;27.10;91.80
40638;DHT22;26336;44.696;10.622;2022-07-29T09:21:13;27.20;92.00
40638;DHT22;26336;44.696;10.622;2022-07-29T09:27:50;27.40;91.30
40638;DHT22;26336;44.696;10.622;2022-07-29T09:30:59;27.40;90.90
40638;DHT22;26336;44.696;10.622;2022-07-29T09:34:04;27.50;90.80
40638;DHT22;26336;44.696;10.622;2022-07-29T09:37:08;27.60;90.40
40638;DHT22;26336;44.696;10.622;2022-07-29T09:40:26;27.70;90.90
40638;DHT22;26336;44.696;10.622;2022-07-29T09:43:30;27.70;89.30
40638;DHT22;26336;44.696;10.622;2022-07-29T09:46:34;27.80;89.50
40638;DHT22;26336;44.696;10.622;2022-07-29T09:49:58;27.80;90.10
40638;DHT22;26336;44.696;10.622;2022-07-29T09:53:02;27.90;90.10
40638;DHT22;26336;44.696;10.622;2022-07-29T09:56:06;28.00;90.10
40638;DHT22;26336;44.696;10.622;2022-07-29T09:59:10;28.10;90.70
40638;DHT22;26336;44.696;10.622;2022-07-29T10:02:16;28.20;90.10
40638;DHT22;26336;44.696;10.622;2022-07-29T10:05:23;28.30;88.90
40638;DHT22;26336;44.696;10.622;2022-07-29T10:08:28;28.40;88.30
40638;DHT22;26336;44.696;10.622;2022-07-29T10:11:34;28.50;87.60
40638;DHT22;26336;44.696;10.622;2022-07-29T10:14:38;28.50;87.00
40638;DHT22;26336;44.696;10.622;2022-07-29T10:17:44;28.50;87.50
40638;DHT22;26336;44.696;10.622;2022-07-29T10:20:48;28.70;86.80
40638;DHT22;26336;44.696;10.622;2022-07-29T10:23:53;28.80;86.50
40638;DHT22;26336;44.696;10.622;2022-07-29T10:26:59;28.90;84.70
40638;DHT22;26336;44.696;10.622;2022-07-29T10:30:04;28.90;84.90
40638;DHT22;26336;44.696;10.622;2022-07-29T10:37:04;28.90;86.20
40638;DHT22;26336;44.696;10.622;2022-07-29T10:44:24;29.00;86.00
40638;DHT22;26336;44.696;10.622;2022-07-29T10:47:29;29.10;85.90
40638;DHT22;26336;44.696;10.622;2022-07-29T10:50:57;29.10;86.00
40638;DHT22;26336;44.696;10.622;2022-07-29T10:54:02;29.10;85.40
40638;DHT22;26336;44.696;10.622;2022-07-29T11:00:27;29.30;85.90
40638;DHT22;26336;44.696;10.622;2022-07-29T11:03:47;29.30;85.20
40638;DHT22;26336;44.696;10.622;2022-07-29T11:17:05;29.70;83.50
40638;DHT22;26336;44.696;10.622;2022-07-29T11:20:37;29.80;83.40
40638;DHT22;26336;44.696;10.622;2022-07-29T11:23:41;29.80;83.00
40638;DHT22;26336;44.696;10.622;2022-07-29T11:27:09;29.80;82.90
40638;DHT22;26336;44.696;10.622;2022-07-29T11:30:13;29.90;82.80
40638;DHT22;26336;44.696;10.622;2022-07-29T11:33:31;30.00;82.20
40638;DHT22;26336;44.696;10.622;2022-07-29T11:36:35;30.00;82.90
40638;DHT22;26336;44.696;10.622;2022-07-29T11:43:02;30.00;81.90
40638;DHT22;26336;44.696;10.622;2022-07-29T11:46:06;30.00;82.30
40638;DHT22;26336;44.696;10.622;2022-07-29T11:49:11;29.90;82.10
40638;DHT22;26336;44.696;10.622;2022-07-29T11:52:16;29.90;83.20
40638;DHT22;26336;44.696;10.622;2022-07-29T11:55:22;29.90;82.90
40638;DHT22;26336;44.696;10.622;2022-07-29T11:58:27;30.00;83.50
40638;DHT22;26336;44.696;10.622;2022-07-29T12:01:32;30.10;83.90
40638;DHT22;26336;44.696;10.622;2022-07-29T12:05:05;30.20;83.60
40638;DHT22;26336;44.696;10.622;2022-07-29T12:08:13;30.30;83.80
40638;DHT22;26336;44.696;10.622;2022-07-29T12:11:18;30.40;83.70
40638;DHT22;26336;44.696;10.622;2022-07-29T12:14:33;30.50;83.70
40638;DHT22;26336;44.696;10.622;2022-07-29T12:17:37;30.50;83.60
40638;DHT22;26336;44.696;10.622;2022-07-29T12:20:43;30.50;82.20
40638;DHT22;26336;44.696;10.622;2022-07-29T12:23:55;30.50;82.30
40638;DHT22;26336;44.696;10.622;2022-07-29T12:26:59;30.60;82.40
40638;DHT22;26336;44.696;10.622;2022-07-29T12:30:06;30.60;81.40
40638;DHT22;26336;44.696;10.622;2022-07-29T12:33:25;30.70;81.10
40638;DHT22;26336;44.696;10.622;2022-07-29T12:36:31;30.70;80.90
40638;DHT22;26336;44.696;10.622;2022-07-29T12:39:35;30.70;81.10
40638;DHT22;26336;44.696;10.622;2022-07-29T12:42:39;30.70;80.90
40638;DHT22;26336;44.696;10.622;2022-07-29T12:45:46;30.70;79.50
40638;DHT22;26336;44.696;10.622;2022-07-29T12:48:51;30.90;80.90
40638;DHT22;26336;44.696;10.622;2022-07-29T12:51:58;30.90;80.10
40638;DHT22;26336;44.696;10.622;2022-07-29T12:55:03;31.00;79.70
40638;DHT22;26336;44.696;10.622;2022-07-29T12:58:10;30.90;80.40
40638;DHT22;26336;44.696;10.622;2022-07-29T13:01:17;30.90;80.40
40638;DHT22;26336;44.696;10.622;2022-07-29T13:04:33;30.90;80.50
40638;DHT22;26336;44.696;10.622;2022-07-29T13:07:41;31.00;80.50
40638;DHT22;26336;44.696;10.622;2022-07-29T13:10:45;31.00;79.30
40638;DHT22;26336;44.696;10.622;2022-07-29T13:13:50;31.10;79.30
40638;DHT22;26336;44.696;10.622;2022-07-29T13:17:16;31.10;79.30
40638;DHT22;26336;44.696;10.622;2022-07-29T13:20:24;31.00;78.90
40638;DHT22;26336;44.696;10.622;2022-07-29T13:23:28;31.00;79.80
40638;DHT22;26336;44.696;10.622;2022-07-29T13:26:33;31.00;80.40
40638;DHT22;26336;44.696;10.622;2022-07-29T13:29:36;31.10;80.10
40638;DHT22;26336;44.696;10.622;2022-07-29T13:32:44;31.20;79.40
40638;DHT22;26336;44.696;10.622;2022-07-29T13:35:48;31.10;79.60
40638;DHT22;26336;44.696;10.622;2022-07-29T13:38:52;31.10;80.30
40638;DHT22;26336;44.696;10.622;2022-07-29T13:41:55;31.00;80.20
40638;DHT22;26336;44.696;10.622;2022-07-29T13:45:00;30.90;80.00
40638;DHT22;26336;44.696;10.622;2022-07-29T13:48:04;30.90;80.00
40638;DHT22;26336;44.696;10.622;2022-07-29T13:51:10;30.80;80.20
40638;DHT22;26336;44.696;10.622;2022-07-29T13:54:15;30.80;80.10
40638;DHT22;26336;44.696;10.622;2022-07-29T13:57:18;30.70;80.50
40638;DHT22;26336;44.696;10.622;2022-07-29T14:00:22;30.70;81.10
40638;DHT22;26336;44.696;10.622;2022-07-29T14:03:27;30.70;81.70
40638;DHT22;26336;44.696;10.622;2022-07-29T14:06:33;30.70;80.40
40638;DHT22;26336;44.696;10.622;2022-07-29T14:09:37;30.70;80.20
40638;DHT22;26336;44.696;10.622;2022-07-29T14:12:41;30.70;79.90
40638;DHT22;26336;44.696;10.622;2022-07-29T14:15:45;30.70;80.00
40638;DHT22;26336;44.696;10.622;2022-07-29T14:18:49;30.70;80.40
40638;DHT22;26336;44.696;10.622;2022-07-29T14:21:53;30.70;79.30
40638;DHT22;26336;44.696;10.622;2022-07-29T14:24:57;30.70;79.30
40638;DHT22;26336;44.696;10.622;2022-07-29T14:28:01;30.60;80.00
40638;DHT22;26336;44.696;10.622;2022-07-29T14:31:05;30.50;80.70
40638;DHT22;26336;44.696;10.622;2022-07-29T14:34:09;30.50;81.00
40638;DHT22;26336;44.696;10.622;2022-07-29T14:37:13;30.40;82.20
40638;DHT22;26336;44.696;10.622;2022-07-29T14:40:17;30.40;84.40
40638;DHT22;26336;44.696;10.622;2022-07-29T14:43:21;30.20;90.00
40638;DHT22;26336;44.696;10.622;2022-07-29T14:46:27;30.00;93.20
40638;DHT22;26336;44.696;10.622;2022-07-29T14:49:39;29.70;94.50
40638;DHT22;26336;44.696;10.622;2022-07-29T14:52:44;29.60;92.80
40638;DHT22;26336;44.696;10.622;2022-07-29T14:55:51;29.60;95.30
40638;DHT22;26336;44.696;10.622;2022-07-29T14:58:58;28.90;95.90
40638;DHT22;26336;44.696;10.622;2022-07-29T15:02:03;27.60;96.70
40638;DHT22;26336;44.696;10.622;2022-07-29T15:05:09;26.40;99.40
40638;DHT22;26336;44.696;10.622;2022-07-29T15:08:14;25.80;99.90
40638;DHT22;26336;44.696;10.622;2022-07-29T15:11:18;25.50;99.70
40638;DHT22;26336;44.696;10.622;2022-07-29T15:14:22;25.10;99.90
40638;DHT22;26336;44.696;10.622;2022-07-29T15:17:26;24.70;99.00
40638;DHT22;26336;44.696;10.622;2022-07-29T15:20:30;24.60;97.60
40638;DHT22;26336;44.696;10.622;2022-07-29T15:23:34;24.50;96.80
40638;DHT22;26336;44.696;10.622;2022-07-29T15:26:41;24.60;96.90
40638;DHT22;26336;44.696;10.622;2022-07-29T15:29:46;24.90;98.00
40638;DHT22;26336;44.696;10.622;2022-07-29T15:32:50;25.10;97.90
40638;DHT22;26336;44.696;10.622;2022-07-29T15:35:56;25.40;97.90
40638;DHT22;26336;44.696;10.622;2022-07-29T15:39:00;25.40;98.10
40638;DHT22;26336;44.696;10.622;2022-07-29T15:42:05;25.50;97.10
40638;DHT22;26336;44.696;10.622;2022-07-29T15:45:09;25.40;98.80
40638;DHT22;26336;44.696;10.622;2022-07-29T15:48:13;25.60;99.30
40638;DHT22;26336;44.696;10.622;2022-07-29T15:51:17;25.60;99.40
40638;DHT22;26336;44.696;10.622;2022-07-29T15:54:21;25.70;99.60
40638;DHT22;26336;44.696;10.622;2022-07-29T15:57:25;25.60;99.40
40638;DHT22;26336;44.696;10.622;2022-07-29T16:00:32;25.60;99.90
40638;DHT22;26336;44.696;10.622;2022-07-29T16:03:37;25.70;99.90
40638;DHT22;26336;44.696;10.622;2022-07-29T16:06:41;25.80;99.90
40638;DHT22;26336;44.696;10.622;2022-07-29T16:09:45;25.90;99.90
40638;DHT22;26336;44.696;10.622;2022-07-29T16:12:49;26.00;99.00
40638;DHT22;26336;44.696;10.622;2022-07-29T16:15:53;26.00;99.70
40638;DHT22;26336;44.696;10.622;2022-07-29T16:18:57;25.90;99.90
40638;DHT22;26336;44.696;10.622;2022-07-29T16:22:01;25.90;99.70
40638;DHT22;26336;44.696;10.622;2022-07-29T16:25:05;26.00;99.70
40638;DHT22;26336;44.696;10.622;2022-07-29T16:28:10;26.00;99.90
40638;DHT22;26336;44.696;10.622;2022-07-29T16:31:13;26.00;99.90
40638;DHT22;26336;44.696;10.622;2022-07-29T16:34:17;25.80;97.40
40638;DHT22;26336;44.696;10.622;2022-07-29T16:37:21;25.90;98.00
40638;DHT22;26336;44.696;10.622;2022-07-29T16:40:28;26.10;97.90
40638;DHT22;26336;44.696;10.622;2022-07-29T16:43:32;26.20;97.50
40638;DHT22;26336;44.696;10.622;2022-07-29T16:46:36;26.30;97.20
40638;DHT22;26336;44.696;10.622;2022-07-29T16:49:41;26.40;96.60
40638;DHT22;26336;44.696;10.622;2022-07-29T16:52:45;26.40;97.40
40638;DHT22;26336;44.696;10.622;2022-07-29T16:55:49;26.50;97.60
40638;DHT22;26336;44.696;10.622;2022-07-29T16:58:52;26.50;97.60
40638;DHT22;26336;44.696;10.622;2022-07-29T17:01:56;26.50;97.00
40638;DHT22;26336;44.696;10.622;2022-07-29T17:05:00;26.50;97.00
40638;DHT22;26336;44.696;10.622;2022-07-29T17:08:04;26.50;97.00
40638;DHT22;26336;44.696;10.622;2022-07-29T17:11:08;26.50;97.00
40638;DHT22;26336;44.696;10.622;2022-07-29T17:14:12;26.50;97.10
40638;DHT22;26336;44.696;10.622;2022-07-29T17:17:16;26.50;96.80
40638;DHT22;26336;44.696;10.622;2022-07-29T17:20:20;26.50;96.70
40638;DHT22;26336;44.696;10.622;2022-07-29T17:23:24;26.50;97.00
40638;DHT22;26336;44.696;10.622;2022-07-29T17:26:28;26.60;97.00
40638;DHT22;26336;44.696;10.622;2022-07-29T17:29:32;26.60;97.40
40638;DHT22;26336;44.696;10.622;2022-07-29T17:32:37;26.60;97.90
40638;DHT22;26336;44.696;10.622;2022-07-29T17:35:42;26.50;97.40
40638;DHT22;26336;44.696;10.622;2022-07-29T17:39:06;26.50;97.50
40638;DHT22;26336;44.696;10.622;2022-07-29T17:42:12;26.50;98.00
40638;DHT22;26336;44.696;10.622;2022-07-29T17:45:17;26.40;97.50
40638;DHT22;26336;44.696;10.622;2022-07-29T17:48:21;26.40;97.80
40638;DHT22;26336;44.696;10.622;2022-07-29T17:51:25;26.40;98.30
40638;DHT22;26336;44.696;10.622;2022-07-29T17:54:29;26.40;98.30
40638;DHT22;26336;44.696;10.622;2022-07-29T17:57:34;26.30;98.40
40638;DHT22;26336;44.696;10.622;2022-07-29T18:00:38;26.40;98.40
40638;DHT22;26336;44.696;10.622;2022-07-29T18:03:42;26.30;99.00
40638;DHT22;26336;44.696;10.622;2022-07-29T18:06:47;26.20;99.60
40638;DHT22;26336;44.696;10.622;2022-07-29T18:09:51;26.10;98.80
40638;DHT22;26336;44.696;10.622;2022-07-29T18:12:55;26.20;98.50
40638;DHT22;26336;44.696;10.622;2022-07-29T18:15:59;26.20;98.50
40638;DHT22;26336;44.696;10.622;2022-07-29T18:19:03;26.30;98.60
40638;DHT22;26336;44.696;10.622;2022-07-29T18:22:07;26.40;98.20
40638;DHT22;26336;44.696;10.622;2022-07-29T18:25:12;26.40;98.30
40638;DHT22;26336;44.696;10.622;2022-07-29T18:28:16;26.50;98.40
40638;DHT22;26336;44.696;10.622;2022-07-29T18:31:20;26.50;98.50
40638;DHT22;26336;44.696;10.622;2022-07-29T18:34:24;26.50;98.70
40638;DHT22;26336;44.696;10.622;2022-07-29T18:37:28;26.50;98.20
40638;DHT22;26336;44.696;10.622;2022-07-29T18:40:32;26.50;97.20
40638;DHT22;26336;44.696;10.622;2022-07-29T18:43:36;26.50;96.60
40638;DHT22;26336;44.696;10.622;2022-07-29T18:46:40;26.50;96.90
40638;DHT22;26336;44.696;10.622;2022-07-29T18:49:44;26.40;97.40
40638;DHT22;26336;44.696;10.622;2022-07-29T18:52:48;26.40;97.40
40638;DHT22;26336;44.696;10.622;2022-07-29T18:55:51;26.50;97.60
40638;DHT22;26336;44.696;10.622;2022-07-29T18:58:56;26.50;97.50
40638;DHT22;26336;44.696;10.622;2022-07-29T19:02:01;26.50;97.90
40638;DHT22;26336;44.696;10.622;2022-07-29T19:05:06;26.50;98.30
40638;DHT22;26336;44.696;10.622;2022-07-29T19:08:10;26.40;98.80
40638;DHT22;26336;44.696;10.622;2022-07-29T19:11:14;26.40;99.00
40638;DHT22;26336;44.696;10.622;2022-07-29T19:14:19;26.30;98.50
40638;DHT22;26336;44.696;10.622;2022-07-29T19:17:23;26.30;98.50
40638;DHT22;26336;44.696;10.622;2022-07-29T19:20:27;26.30;98.50
40638;DHT22;26336;44.696;10.622;2022-07-29T19:23:31;26.30;97.80
40638;DHT22;26336;44.696;10.622;2022-07-29T19:26:36;26.30;97.70
40638;DHT22;26336;44.696;10.622;2022-07-29T19:29:45;26.20;97.60
40638;DHT22;26336;44.696;10.622;2022-07-29T19:32:49;26.10;97.50
40638;DHT22;26336;44.696;10.622;2022-07-29T19:35:53;26.10;97.70
40638;DHT22;26336;44.696;10.622;2022-07-29T19:38:57;26.10;97.70
40638;DHT22;26336;44.696;10.622;2022-07-29T19:42:02;26.00;97.70
40638;DHT22;26336;44.696;10.622;2022-07-29T19:45:09;25.90;97.80
40638;DHT22;26336;44.696;10.622;2022-07-29T19:48:13;25.90;98.10
40638;DHT22;26336;44.696;10.622;2022-07-29T19:51:17;25.90;98.20
40638;DHT22;26336;44.696;10.622;2022-07-29T19:54:21;25.90;98.20